Aktualne dane pomiarowe

Uwaga, wersja testowa! Automatyczne pobieranie danych za pomocą narzędzi lub skryptów to umożliwiających jest zabronione.

Dane meteo z obszaru Polski uzyskane na podstawie depesz SYNOP pobieranych co godzinę z NWS. Najedź myszką na symbol przedstawiony w tabeli, aby uzyskać informacje co do jego znaczenia. Prosimy pamiętać, że to testowa wersja strony, która jeszcze nie jest ukończona. Stworzono również jest krótki FAQ dotyczący korzystania z tej podstrony Anomalie temperatury w chwili obecnej odniesione są do okresu referencyjnego 1951-2016. Okres ten będzie później zmieniony na 1981-2010. Kliknij ikonę aby pobrać plik CSV. Kliknij ikonę aby wygenerować mapę synoptyczną dla danego terminu.

Wybierz Datę:    

        

Dęblin-Irena (12490)

Dane terminowe dla wybranej stacji. Kliknij datę, aby otrzymać dane z tego terminu dla wszystkich stacji.

TemperaturaZachmurzenieWiatrCiśnienieOpadyPogoda
 Data t td wb tx tn tg rh  Nt Nl Cl Cm Ch ws wd g1 g2 wx mslp ppp ch 24h 12h t ww ww w1 w2  
2019-08-08 23:00:00 16.5 12.5 13.9--- 7730.0--0wx---1012.4 998.4 0.7-------
2019-08-08 22:00:00 13.7 11.4 12.1--- 8620.0--1wx---1012.5 998.4 0.7-------
2019-08-08 21:00:00 13.8 11.2 12.0--- 8420.0--0wx---1012.1 998.0 0.6-------
2019-08-08 20:00:00 15.0 11.8 12.9--- 8120.0wx-wx1wx---1011.7 997.7 0.7---------
2019-08-08 19:00:00 17.4 11.5 13.7--- 6820.0wx-wx1wx---1011.6 997.7 0.8---------
2019-08-08 18:00:00 22.0 10.8 15.3--- 4920.0wx-wx1wx---1011.1 997.4 0.5---------
2019-08-08 17:00:00 24.4 10.0 15.9--- 4020.0wxwxwxwx4wx---1010.5 997.0 0.4---------
2019-08-08 16:00:00 25.5 9.9 16.3--- 3720.0wxwxwxwx5wx---1010.4 996.9 0.6---------
2019-08-08 15:00:00 25.5 9.0 16.0--- 3520.0wxwxwxwx7wx---1010.4 996.9 0.7---------
2019-08-08 14:00:00 26.1 9.5 16.4--- 3520.0wxwxwxwx7wx---1010.0 996.5 0.9---------
2019-08-08 13:00:00 25.6 9.5 16.2--- 3620.0wxwxwxwx10wx---1009.8 996.3 1.0---------
2019-08-08 12:00:00 25.7 10.7 16.8--- 3920.0wxwxwxwx8wx---1009.7 996.2 1.3---------
2019-08-08 11:00:00 24.9 12.2 17.2--- 4520.0wxwxwxwx8wx---1009.3 995.8 1.4---------
2019-08-08 10:00:00 23.8 12.8 17.0--- 5020.0wxwxwxwx9wx---1008.7 995.2 1.4---------
2019-08-08 09:00:00 21.0 14.4 16.7--- 6620.0wxwxwxwx8wx---1008.3 994.6 2.3---------
2019-08-08 08:00:00 20.9 15.5 17.3--- 7120.0wxwxwxwx6wx---1008.0 994.3 2.5---------
2019-08-08 07:00:00 19.4 16.6 17.4--- 8420.0wxwxwxwx6wx---1007.5 993.8 2.3---------
2019-08-08 06:00:00 18.7 17.0 17.5--- 9020.0wxwxwx6wx---1006.9 993.1 2.0---------
2019-08-08 05:00:00 18.5 17.4 17.7--- 939.0wxwxwx4wx---1005.6 991.8 0.1---wx---
2019-08-08 04:00:00 18.4 17.4 17.7--- 949.0wxwxwx4wx---1005.3 991.5 -0.5---------
2019-08-08 03:00:00 18.4 17.3 17.6--- 938.0wxwxwx2wx---1004.9 991.1 -1.3---wx-w1w2--
2019-08-08 02:00:00 18.9 17.6 18.0--- 9210.0wxwxwxwx2wx---1005.4 991.7 -0.7---wx-w1--
2019-08-08 01:00:00 19.2 17.9 18.2--- 9210.0wxwxwxwx2wx---1005.7 992.0 -0.1---wx---
2019-08-08 00:00:00 19.5 18.0 18.4--- 9110.0--2wx---1006.0 992.3----------
2019-08-07 23:00:00 18.3 17.2 17.5--- 9310.0--0wx---1006.3 992.5----------
2019-08-07 22:00:00 18.0 16.5 16.9--- 9110.0--2wx---1006.0 992.2----------
2019-08-07 21:00:00 19.4 17.2 17.8--- 8730.0--2wx---1006.0 992.3----------
2019-08-07 20:00:00 20.8 17.4 18.4--- 8110.0wxwxwxwx1wx---1006.4 992.7 -0.7---------
2019-08-07 19:00:00 22.0 18.2 19.3--- 7910.0wxwxwxwx2wx---1006.8 993.3 -0.8---------
2019-08-07 18:00:00 23.5 16.3 18.7--- 6440.0wxwxwxwx2wx---1006.7 993.2 -0.8---------
2019-08-07 17:00:00 25.0 15.6 18.9--- 5610.0wxwxwxwx2wx---1006.9 993.4 -1.0---------
2019-08-07 16:00:00 24.4 15.9 18.8--- 5910.0wxwxwx3wx---1007.5 994.0 -0.5---------
2019-08-07 15:00:00 26.4 13.6 18.4--- 4510.0wxwxwxwxwx3wx---1007.4 993.9 -0.8---------
2019-08-07 14:00:00 26.6 13.7 18.6--- 4510.0wxwxwxwx3wx---1007.7 994.2 -0.8---------
2019-08-07 13:00:00 27.3 13.3 18.6--- 4210.0wxwxwxwx3wx---1007.9 994.4 -0.9---------
2019-08-07 12:00:00 27.5 13.5 18.8--- 4210.0wxwxwxwx3wx---1008.1 994.7 -0.7---------
2019-08-07 11:00:00 27.2 13.9 18.9--- 4410.0wxwxwxwxwx4wx---1008.5 995.0 -0.1---------
2019-08-07 10:00:00 26.4 15.5 19.4--- 5110.0wxwxwxwxwx4wx---1008.8 995.3 0.1---------
2019-08-07 09:00:00 24.9 15.8 19.0--- 5710.0wx-wxwx3wx---1009.0 995.5 0.4---------
2019-08-07 08:00:00 23.9 15.9 18.7--- 6110.0wx-wxwx3wx---1008.7 995.2 -0.4---------
2019-08-07 07:00:00 22.6 16.4 18.4--- 6810.0wx-wxwx2wx---1008.9 995.3 -0.3---------
2019-08-07 06:00:00 21.6 16.8 18.3--- 7410.0wx-wxwx2wx---1008.9 995.2 0.3---------
2019-08-07 05:00:00 19.6 16.5 17.4--- 8210.0wxwxwxwx1wx---1009.4 995.6 0.3---------
2019-08-07 04:00:00 18.6 16.4 17.0--- 8710.0wxwxwxwx2wx---1009.3 995.5 0.4---------
2019-08-07 03:00:00 18.9 16.0 16.9--- 8310.0wx-wx1----1008.7 994.9 -0.1---------
2019-08-07 02:00:00 19.5 15.8 17.0--- 7910.0wx-wx1wx---1009.1 995.3 -0.3---------
2019-08-07 01:00:00 19.1 14.8 16.2--- 7610.0wxwxwxwx1wx---1009.0 995.2 -0.2---------
2019-08-07 00:00:00 21.5 13.9 16.6--- 6240.0--0wx---1008.6 994.9----------
3.3 ms

 

Print Friendly, PDF & Email